createdAt,value
2022-11-24T00:03:08.967Z,29.70
2022-11-24T00:08:12.031Z,29.60
2022-11-24T00:13:14.105Z,29.60
2022-11-24T00:18:16.140Z,29.50
2022-11-24T00:28:20.591Z,29.50
2022-11-24T00:33:22.613Z,29.70
2022-11-24T00:38:25.127Z,29.20
2022-11-24T00:43:27.136Z,29.20
2022-11-24T00:48:30.821Z,29.00
2022-11-24T00:53:33.748Z,29.00
2022-11-24T00:58:36.141Z,29.10
2022-11-24T01:03:38.471Z,29.10
2022-11-24T01:08:41.249Z,29.00
2022-11-24T01:13:45.428Z,29.00
2022-11-24T01:23:50.458Z,29.00
2022-11-24T01:28:57.161Z,29.10
2022-11-24T01:33:59.166Z,29.20
2022-11-24T01:44:30.381Z,29.00
2022-11-24T01:49:45.269Z,29.10
2022-11-24T01:54:57.469Z,28.90
2022-11-24T02:00:04.918Z,28.80
2022-11-24T02:05:24.286Z,28.60
2022-11-24T02:10:26.376Z,28.60
2022-11-24T02:15:28.926Z,28.50
2022-11-24T02:20:31.042Z,28.30
2022-11-24T02:25:49.048Z,28.30
2022-11-24T02:30:53.221Z,28.20
2022-11-24T02:35:55.295Z,28.10
2022-11-24T02:40:59.125Z,28.10
2022-11-24T02:46:01.257Z,28.20
2022-11-24T02:51:03.528Z,28.10
2022-11-24T02:56:05.849Z,28.60
2022-11-24T03:01:07.988Z,28.10
2022-11-24T03:06:10.135Z,28.00
2022-11-24T03:11:12.176Z,28.00
2022-11-24T03:16:14.256Z,28.00
2022-11-24T03:21:16.426Z,27.90
2022-11-24T03:26:20.628Z,28.00
2022-11-24T03:31:23.478Z,28.00
2022-11-24T03:36:25.891Z,27.90
2022-11-24T03:41:27.940Z,27.90
2022-11-24T03:46:30.071Z,27.90
2022-11-24T03:51:32.296Z,28.10
2022-11-24T03:56:34.605Z,28.00
2022-11-24T04:01:36.752Z,28.20
2022-11-24T04:12:00.280Z,28.30
2022-11-24T04:17:04.103Z,28.20
2022-11-24T04:22:06.160Z,28.40
2022-11-24T04:27:08.285Z,28.40
2022-11-24T04:32:10.349Z,28.40
2022-11-24T04:37:12.536Z,28.50
2022-11-24T04:42:14.652Z,28.50
2022-11-24T04:47:20.566Z,28.60
2022-11-24T04:52:24.644Z,28.60
2022-11-24T04:57:27.467Z,28.60
2022-11-24T05:02:29.424Z,28.50
2022-11-24T05:07:31.645Z,28.60
2022-11-24T05:12:33.910Z,28.50
2022-11-24T05:17:38.573Z,28.60
2022-11-24T05:22:40.712Z,29.10
2022-11-24T05:27:42.871Z,28.70
2022-11-24T05:32:45.070Z,28.60
2022-11-24T05:37:47.676Z,28.60
2022-11-24T05:42:49.744Z,28.60
2022-11-24T05:47:53.012Z,28.60
2022-11-24T05:57:59.247Z,28.60
2022-11-24T06:03:02.440Z,28.90
2022-11-24T06:08:05.081Z,28.70
2022-11-24T06:13:07.776Z,29.20
2022-11-24T06:18:09.860Z,28.80
2022-11-24T06:23:11.958Z,28.50
2022-11-24T06:28:14.144Z,28.70
2022-11-24T06:33:16.171Z,28.80
2022-11-24T06:38:24.116Z,28.70
2022-11-24T06:43:30.595Z,28.90
2022-11-24T06:53:38.143Z,28.80
2022-11-24T06:58:45.917Z,28.80
2022-11-24T07:03:49.089Z,28.90
2022-11-24T07:08:51.419Z,28.90
2022-11-24T07:13:59.496Z,28.80
2022-11-24T07:19:03.049Z,29.00
2022-11-24T07:24:05.566Z,29.10
2022-11-24T07:29:07.685Z,28.90
2022-11-24T07:34:09.810Z,29.00
2022-11-24T07:39:12.021Z,29.10
2022-11-24T07:44:14.048Z,29.30
2022-11-24T07:49:16.107Z,29.10
2022-11-24T07:54:18.158Z,29.30
2022-11-24T08:04:23.107Z,29.40
2022-11-24T08:09:25.163Z,29.30
2022-11-24T08:14:27.157Z,29.30
2022-11-24T08:24:32.008Z,29.50
2022-11-24T08:29:34.312Z,30.00
2022-11-24T08:34:36.876Z,29.90
2022-11-24T08:39:39.029Z,29.60
2022-11-24T08:44:41.124Z,29.60
2022-11-24T08:49:43.151Z,29.40
2022-11-24T08:54:45.273Z,29.40
2022-11-24T08:59:47.295Z,29.00
2022-11-24T09:04:49.461Z,29.80
2022-11-24T09:09:52.150Z,29.30
2022-11-24T09:14:54.153Z,29.10
2022-11-24T09:19:56.248Z,29.00
2022-11-24T09:24:58.583Z,28.10
2022-11-24T09:30:00.667Z,28.30
2022-11-24T09:35:02.765Z,28.90
2022-11-24T09:40:05.377Z,28.70
2022-11-24T09:45:14.982Z,28.60
2022-11-24T09:50:22.460Z,27.90
2022-11-24T09:55:31.509Z,27.60
2022-11-24T10:00:34.247Z,27.30
2022-11-24T10:05:36.267Z,27.20
2022-11-24T10:10:51.103Z,27.30
2022-11-24T10:16:04.373Z,27.00
2022-11-24T10:21:31.140Z,26.50
2022-11-24T10:26:44.146Z,26.60
2022-11-24T10:31:51.120Z,25.70
2022-11-24T10:37:20.591Z,24.80
2022-11-24T10:42:31.663Z,25.60
2022-11-24T10:47:33.707Z,24.60
2022-11-24T10:52:41.792Z,25.20
2022-11-24T10:57:45.072Z,24.70
2022-11-24T11:02:49.238Z,25.00
2022-11-24T11:08:08.658Z,23.20
2022-11-24T11:13:28.556Z,24.00
2022-11-24T11:18:33.032Z,23.70
2022-11-24T11:23:36.910Z,23.00
2022-11-24T11:28:39.014Z,23.40
2022-11-24T11:34:13.904Z,23.30
2022-11-24T11:39:37.862Z,23.20
2022-11-24T11:45:00.830Z,22.70
2022-11-24T11:50:02.987Z,21.80
2022-11-24T11:55:31.801Z,21.80
2022-11-24T12:00:39.675Z,20.80
2022-11-24T12:05:55.650Z,19.80
2022-11-24T12:11:25.117Z,19.80
2022-11-24T12:16:58.009Z,18.90
2022-11-24T12:22:09.414Z,19.50
2022-11-24T12:27:32.575Z,19.30
2022-11-24T12:33:00.135Z,18.20
2022-11-24T12:38:29.474Z,19.00
2022-11-24T12:43:40.324Z,19.00
2022-11-24T12:48:56.731Z,18.70
2022-11-24T12:54:02.951Z,18.20
2022-11-24T12:59:20.454Z,18.70
2022-11-24T13:04:34.404Z,18.90
2022-11-24T13:09:37.145Z,18.70
2022-11-24T13:14:43.109Z,19.20
2022-11-24T13:19:45.885Z,19.00
2022-11-24T13:25:03.066Z,18.60
2022-11-24T13:30:34.247Z,18.60
2022-11-24T13:35:37.318Z,18.20
2022-11-24T13:40:54.133Z,18.10
2022-11-24T13:46:03.802Z,18.00
2022-11-24T13:56:24.862Z,17.40
2022-11-24T14:01:36.623Z,17.10
2022-11-24T14:06:46.043Z,17.10
2022-11-24T14:12:15.387Z,16.00
2022-11-24T14:17:27.562Z,16.60
2022-11-24T14:22:39.069Z,16.50
2022-11-24T14:27:41.167Z,16.60
2022-11-24T14:33:01.155Z,16.40
2022-11-24T14:38:05.127Z,16.40
2022-11-24T14:43:28.186Z,16.60
2022-11-24T14:48:45.704Z,17.00
2022-11-24T14:53:52.184Z,17.20
2022-11-24T14:58:55.774Z,17.10
2022-11-24T15:04:38.894Z,17.00
2022-11-24T15:09:57.696Z,16.90
2022-11-24T15:15:04.629Z,17.50
2022-11-24T15:20:16.912Z,17.40
2022-11-24T15:25:32.356Z,17.60
2022-11-24T15:30:36.657Z,18.00
2022-11-24T15:35:38.761Z,17.80
2022-11-24T15:40:43.533Z,17.80
2022-11-24T15:45:45.625Z,18.50
2022-11-24T15:50:48.335Z,18.10
2022-11-24T15:55:51.508Z,18.30
2022-11-24T16:00:53.950Z,18.90
2022-11-24T16:05:57.535Z,18.80
2022-11-24T16:10:59.532Z,18.90
2022-11-24T16:16:01.646Z,19.10
2022-11-24T16:21:03.731Z,19.30
2022-11-24T16:26:06.627Z,19.70
2022-11-24T16:31:08.745Z,20.50
2022-11-24T16:36:11.148Z,20.10
2022-11-24T16:41:14.141Z,20.60
2022-11-24T16:46:23.151Z,20.40
2022-11-24T16:51:27.767Z,20.90
2022-11-24T16:56:32.367Z,20.60
2022-11-24T17:01:34.742Z,21.00
2022-11-24T17:06:36.859Z,20.80
2022-11-24T17:11:39.173Z,21.00
2022-11-24T17:16:41.507Z,21.40
2022-11-24T17:21:43.755Z,21.10
2022-11-24T17:26:48.970Z,21.20
2022-11-24T17:31:51.417Z,21.20
2022-11-24T17:36:53.553Z,21.40
2022-11-24T17:41:55.606Z,21.50
2022-11-24T17:46:58.937Z,21.90
2022-11-24T17:52:01.245Z,21.70
2022-11-24T17:57:03.447Z,21.70
2022-11-24T18:02:05.500Z,22.00
2022-11-24T18:07:07.793Z,22.10
2022-11-24T18:12:10.026Z,23.00
2022-11-24T18:22:14.574Z,23.60
2022-11-24T18:27:16.691Z,23.40
2022-11-24T18:32:18.753Z,23.40
2022-11-24T18:37:20.840Z,24.40
2022-11-24T18:42:25.441Z,24.20
2022-11-24T18:47:27.546Z,24.40
2022-11-24T18:52:29.693Z,24.50
2022-11-24T18:57:31.788Z,24.50
2022-11-24T19:02:34.629Z,24.30
2022-11-24T19:07:36.810Z,24.70
2022-11-24T19:12:39.007Z,24.60
2022-11-24T19:22:43.531Z,24.80
2022-11-24T19:27:46.364Z,24.60
2022-11-24T19:32:48.451Z,24.60
2022-11-24T19:37:51.078Z,24.70
2022-11-24T19:42:53.081Z,24.90
2022-11-24T19:47:55.099Z,25.00
2022-11-24T19:52:57.127Z,25.00
2022-11-24T19:57:59.153Z,24.90
2022-11-24T20:03:01.274Z,24.90
2022-11-24T20:08:03.537Z,24.90
2022-11-24T20:13:05.560Z,24.80
2022-11-24T20:18:07.695Z,25.40
2022-11-24T20:23:10.285Z,24.70
2022-11-24T20:28:12.215Z,24.70
2022-11-24T20:38:16.797Z,24.90
2022-11-24T20:43:18.812Z,25.20
2022-11-24T20:48:20.834Z,25.70
2022-11-24T20:53:23.413Z,25.10
2022-11-24T20:58:25.469Z,25.20
2022-11-24T21:03:27.574Z,25.80
2022-11-24T21:08:33.748Z,26.40
2022-11-24T21:13:37.155Z,26.00
2022-11-24T21:23:42.789Z,25.70
2022-11-24T21:28:47.399Z,25.60
2022-11-24T21:33:51.779Z,25.50
2022-11-24T21:38:56.028Z,25.70
2022-11-24T21:43:58.188Z,25.60
2022-11-24T21:49:01.530Z,25.60
2022-11-24T21:54:03.785Z,25.80
2022-11-24T22:04:09.483Z,25.90
2022-11-24T22:09:17.560Z,26.00
2022-11-24T22:14:20.341Z,25.60
2022-11-24T22:24:27.347Z,25.70
2022-11-24T22:29:29.687Z,25.80
2022-11-24T22:34:31.720Z,25.90
2022-11-24T22:39:33.802Z,26.00
2022-11-24T22:44:36.149Z,26.10
2022-11-24T22:49:38.314Z,26.00
2022-11-24T22:54:40.385Z,26.10
2022-11-24T22:59:42.527Z,26.20
2022-11-24T23:09:47.618Z,26.10
2022-11-24T23:14:49.660Z,26.20
2022-11-24T23:19:51.865Z,26.30
2022-11-24T23:29:56.429Z,26.60
2022-11-24T23:34:58.454Z,26.60
2022-11-24T23:40:00.456Z,26.60
2022-11-24T23:45:03.313Z,26.70
2022-11-24T23:50:08.448Z,26.70
2022-11-24T23:55:10.480Z,26.80
